createdAt,value
2018-12-01T00:00:30.875Z,61.09
2018-12-01T00:02:56.865Z,60.13
2018-12-01T00:05:22.843Z,58.24
2018-12-01T00:07:48.825Z,57.39
2018-12-01T00:10:14.819Z,59.62
2018-12-01T00:12:40.807Z,58.97
2018-12-01T00:15:06.808Z,61.20
2018-12-01T00:17:33.468Z,58.82
2018-12-01T00:19:59.432Z,60.12
2018-12-01T00:22:25.429Z,58.43
2018-12-01T00:24:51.417Z,59.14
2018-12-01T00:27:17.384Z,61.97
2018-12-01T00:29:43.341Z,58.80
2018-12-01T00:32:09.399Z,60.47
2018-12-01T00:34:35.463Z,58.53
2018-12-01T00:37:01.426Z,62.13
2018-12-01T00:39:27.459Z,61.47
2018-12-01T00:41:53.414Z,58.97
2018-12-01T00:44:19.385Z,59.79
2018-12-01T00:46:45.359Z,59.15
2018-12-01T00:49:11.343Z,56.21
2018-12-01T00:51:37.340Z,58.73
2018-12-01T00:54:03.327Z,60.64
2018-12-01T00:56:29.316Z,61.06
2018-12-01T00:58:55.306Z,57.18
2018-12-01T01:01:21.291Z,57.71
2018-12-01T01:03:47.296Z,57.35
2018-12-01T01:06:13.248Z,55.22
2018-12-01T01:08:39.258Z,57.58
2018-12-01T01:11:05.209Z,58.87
2018-12-01T01:13:31.214Z,58.34
2018-12-01T01:15:57.180Z,60.23
2018-12-01T01:18:23.173Z,59.43
2018-12-01T01:23:20.535Z,58.49
2018-12-01T01:25:46.497Z,58.16
2018-12-01T01:28:12.473Z,60.12
2018-12-01T01:30:38.466Z,59.71
2018-12-01T01:33:04.444Z,60.12
2018-12-01T01:35:30.447Z,61.39
2018-12-01T01:37:56.424Z,60.72
2018-12-01T01:40:22.393Z,59.44
2018-12-01T01:42:48.373Z,60.61
2018-12-01T01:45:14.356Z,60.26
2018-12-01T01:47:40.327Z,57.45
2018-12-01T01:50:06.328Z,59.06
2018-12-01T01:52:32.343Z,59.70
2018-12-01T01:54:58.323Z,58.90
2018-12-01T01:57:24.308Z,59.45
2018-12-01T01:59:50.311Z,58.46
2018-12-01T02:02:16.299Z,60.43
2018-12-01T02:04:42.321Z,57.93
2018-12-01T02:07:08.322Z,57.24
2018-12-01T02:09:34.292Z,57.58
2018-12-01T02:12:00.289Z,59.19
2018-12-01T02:14:26.376Z,58.14
2018-12-01T02:16:52.336Z,58.17
2018-12-01T02:19:18.316Z,59.37
2018-12-01T02:21:44.291Z,57.60
2018-12-01T02:24:10.304Z,56.50
2018-12-01T02:26:36.288Z,57.68
2018-12-01T02:29:02.281Z,57.66
2018-12-01T02:31:28.306Z,57.82
2018-12-01T02:33:54.284Z,57.74
2018-12-01T02:36:20.251Z,57.87
2018-12-01T02:38:46.227Z,55.86
2018-12-01T02:41:12.190Z,54.59
2018-12-01T02:43:38.175Z,56.19
2018-12-01T02:46:04.157Z,56.04
2018-12-01T02:48:30.145Z,55.80
2018-12-01T02:50:56.123Z,58.10
2018-12-01T02:53:22.115Z,57.46
2018-12-01T02:55:48.105Z,56.82
2018-12-01T02:58:14.065Z,58.33
2018-12-01T03:00:40.054Z,57.09
2018-12-01T03:03:06.062Z,57.64
2018-12-01T03:05:32.058Z,57.41
2018-12-01T03:07:58.022Z,58.09
2018-12-01T03:10:23.993Z,58.85
2018-12-01T03:12:49.984Z,58.97
2018-12-01T03:15:15.965Z,57.48
2018-12-01T03:17:41.985Z,55.69
2018-12-01T03:20:07.959Z,56.38
2018-12-01T03:22:33.914Z,55.73
2018-12-01T03:24:59.917Z,55.23
2018-12-01T03:27:25.887Z,55.18
2018-12-01T03:29:51.911Z,54.31
2018-12-01T03:32:17.883Z,56.20
2018-12-01T03:34:43.876Z,56.28
2018-12-01T03:37:09.875Z,55.15
2018-12-01T03:39:35.864Z,55.90
2018-12-01T03:42:01.876Z,54.88
2018-12-01T03:44:27.840Z,55.23
2018-12-01T03:46:53.800Z,54.47
2018-12-01T03:49:19.764Z,54.57
2018-12-01T03:51:45.747Z,55.40
2018-12-01T03:54:11.709Z,56.19
2018-12-01T03:56:37.680Z,55.59
2018-12-01T03:59:03.637Z,56.39
2018-12-01T04:01:29.628Z,53.94
2018-12-01T04:03:55.581Z,55.75
2018-12-01T04:06:21.575Z,55.28
2018-12-01T04:08:47.565Z,56.57
2018-12-01T04:11:13.551Z,57.08
2018-12-01T04:13:39.555Z,55.08
2018-12-01T04:16:05.523Z,54.91
2018-12-01T04:18:31.505Z,55.36
2018-12-01T04:20:57.535Z,55.61
2018-12-01T04:23:23.512Z,55.41
2018-12-01T04:25:49.511Z,56.13
2018-12-01T04:28:15.496Z,55.44
2018-12-01T04:30:41.489Z,54.86
2018-12-01T04:33:08.527Z,55.08
2018-12-01T04:35:34.513Z,55.23
2018-12-01T04:38:00.496Z,54.73
2018-12-01T04:40:26.451Z,55.20
2018-12-01T04:42:52.456Z,54.27
2018-12-01T04:45:18.437Z,55.16
2018-12-01T04:47:44.393Z,54.66
2018-12-01T04:50:10.380Z,53.98
2018-12-01T04:52:36.335Z,54.69
2018-12-01T04:55:02.302Z,55.83
2018-12-01T04:57:28.275Z,55.60
2018-12-01T04:59:54.244Z,55.90
2018-12-01T05:02:20.221Z,56.34
2018-12-01T05:04:46.209Z,55.24
2018-12-01T05:07:12.231Z,55.47
2018-12-01T05:09:38.198Z,55.64
2018-12-01T05:12:04.164Z,54.92
2018-12-01T05:14:30.120Z,53.96
2018-12-01T05:16:56.092Z,54.92
2018-12-01T05:19:22.058Z,55.47
2018-12-01T05:21:48.010Z,56.30
2018-12-01T05:24:13.985Z,54.70
2018-12-01T05:26:39.970Z,55.67
2018-12-01T05:29:05.953Z,55.94
2018-12-01T05:31:32.008Z,55.53
2018-12-01T05:33:57.980Z,54.82
2018-12-01T05:36:23.995Z,55.37
2018-12-01T05:38:50.048Z,54.78
2018-12-01T05:41:16.079Z,54.65
2018-12-01T05:43:42.065Z,53.59
2018-12-01T05:46:08.019Z,54.02
2018-12-01T05:48:35.071Z,54.98
2018-12-01T05:51:01.071Z,54.76
2018-12-01T05:58:32.426Z,58.86
2018-12-01T06:00:58.583Z,58.11
2018-12-01T06:03:24.552Z,57.50
2018-12-01T06:05:50.503Z,57.22
2018-12-01T06:08:16.465Z,55.18
2018-12-01T06:10:42.452Z,58.10
2018-12-01T06:13:08.439Z,57.45
2018-12-01T06:15:34.397Z,56.63
2018-12-01T06:18:00.399Z,55.25
2018-12-01T06:20:26.397Z,54.85
2018-12-01T06:22:52.440Z,54.61
2018-12-01T06:25:19.082Z,57.12
2018-12-01T06:27:45.115Z,56.72
2018-12-01T06:30:11.073Z,55.68
2018-12-01T06:32:37.085Z,55.30
2018-12-01T06:35:03.040Z,55.51
2018-12-01T06:37:29.030Z,53.96
2018-12-01T06:39:55.024Z,55.52
2018-12-01T06:42:21.010Z,55.83
2018-12-01T06:44:47.004Z,56.11
2018-12-01T06:47:12.985Z,57.37
2018-12-01T06:49:38.988Z,57.83
2018-12-01T06:52:05.225Z,58.89
2018-12-01T06:54:31.199Z,57.47
2018-12-01T06:56:57.184Z,56.70
2018-12-01T06:59:23.219Z,56.60
2018-12-01T07:01:49.216Z,56.32
2018-12-01T07:04:15.180Z,55.79
2018-12-01T07:06:41.178Z,54.14
2018-12-01T07:09:07.196Z,55.80
2018-12-01T07:11:33.178Z,56.24
2018-12-01T07:13:59.187Z,54.58
2018-12-01T07:16:25.215Z,55.96
2018-12-01T07:18:51.341Z,55.06
2018-12-01T07:21:17.454Z,55.66
2018-12-01T07:23:43.418Z,55.75
2018-12-01T07:26:09.391Z,55.05
2018-12-01T07:28:36.457Z,55.27
2018-12-01T07:31:02.424Z,55.77
2018-12-01T07:33:28.471Z,55.58
2018-12-01T07:35:54.433Z,54.93
2018-12-01T07:38:20.415Z,55.40
2018-12-01T07:40:46.406Z,56.33
2018-12-01T07:43:12.397Z,55.94
2018-12-01T07:45:38.432Z,57.48
2018-12-01T07:48:04.421Z,56.67
2018-12-01T07:50:30.397Z,56.30
2018-12-01T07:52:56.378Z,55.93
2018-12-01T07:55:22.358Z,55.84
2018-12-01T07:57:48.420Z,55.24
2018-12-01T08:00:17.559Z,56.35
2018-12-01T08:12:54.483Z,56.07
2018-12-01T08:15:20.458Z,56.45
2018-12-01T08:17:46.462Z,56.19
2018-12-01T08:20:12.465Z,55.81
2018-12-01T08:25:09.752Z,56.28
2018-12-01T08:27:39.711Z,56.56
2018-12-01T08:30:05.879Z,56.97
2018-12-01T08:32:31.895Z,55.40
2018-12-01T08:34:59.091Z,55.69
2018-12-01T08:37:25.057Z,55.27
2018-12-01T08:39:51.078Z,55.84
2018-12-01T08:42:17.078Z,55.66
2018-12-01T08:44:43.174Z,56.24
2018-12-01T08:47:09.171Z,56.89
2018-12-01T08:49:35.197Z,55.40
2018-12-01T08:52:01.171Z,54.81
2018-12-01T08:54:30.356Z,55.08
2018-12-01T08:56:56.393Z,55.29
2018-12-01T08:59:23.566Z,54.79
2018-12-01T09:01:51.636Z,54.11
2018-12-01T09:04:17.721Z,53.98
2018-12-01T09:06:43.723Z,55.40
2018-12-01T09:09:09.728Z,55.02
2018-12-01T09:11:35.760Z,56.69
2018-12-01T09:14:01.824Z,56.84
2018-12-01T09:16:27.848Z,56.37
2018-12-01T09:18:53.892Z,56.21
2018-12-01T09:21:19.920Z,55.85
2018-12-01T09:23:45.922Z,55.76
2018-12-01T09:26:17.015Z,57.41
2018-12-01T09:28:43.100Z,55.60
2018-12-01T09:31:09.356Z,55.58
2018-12-01T09:33:35.356Z,56.28
2018-12-01T09:36:01.352Z,57.92
2018-12-01T09:38:27.387Z,56.99
2018-12-01T09:40:53.377Z,57.66
2018-12-01T09:43:19.461Z,56.11
2018-12-01T09:45:45.678Z,56.54
2018-12-01T09:48:11.835Z,56.82
2018-12-01T09:50:37.874Z,56.79
2018-12-01T09:53:03.853Z,56.04
2018-12-01T09:55:29.852Z,57.09
2018-12-01T09:57:59.148Z,54.77
2018-12-01T10:00:25.166Z,55.70
2018-12-01T10:02:51.210Z,55.31
2018-12-01T10:05:17.223Z,54.49
2018-12-01T10:07:43.301Z,53.98
2018-12-01T10:10:13.702Z,54.62
2018-12-01T10:12:39.753Z,54.81
2018-12-01T10:15:05.755Z,55.25
2018-12-01T10:17:31.751Z,56.16
2018-12-01T10:19:58.770Z,57.67
2018-12-01T10:22:24.785Z,57.36
2018-12-01T10:24:50.817Z,56.47
2018-12-01T10:27:16.817Z,56.16
2018-12-01T10:29:42.832Z,55.49
2018-12-01T10:32:08.850Z,57.03
2018-12-01T10:34:34.887Z,56.31
2018-12-01T10:37:00.919Z,55.07
2018-12-01T10:39:27.974Z,54.26
2018-12-01T10:41:54.016Z,55.47
2018-12-01T10:57:02.745Z,59.94
2018-12-01T10:59:29.729Z,58.14
2018-12-01T11:01:55.881Z,58.44
2018-12-01T11:04:22.104Z,58.67
2018-12-01T11:06:48.278Z,57.99
2018-12-01T11:09:14.470Z,57.26
2018-12-01T11:11:40.578Z,57.25
2018-12-01T11:14:06.688Z,55.80
2018-12-01T11:16:32.828Z,56.49
2018-12-01T11:18:58.942Z,59.97
2018-12-01T11:21:26.189Z,61.25
2018-12-01T11:23:52.258Z,59.00
2018-12-01T11:26:18.277Z,58.33
2018-12-01T11:28:44.303Z,57.76
2018-12-01T11:31:12.144Z,56.59
2018-12-01T11:33:42.591Z,59.58
2018-12-01T11:36:08.590Z,59.56
2018-12-01T11:38:34.660Z,59.64
2018-12-01T11:41:00.793Z,60.83
2018-12-01T11:43:27.195Z,59.02
2018-12-01T11:45:53.301Z,59.10
2018-12-01T11:48:19.380Z,57.82
2018-12-01T11:50:46.114Z,57.05
2018-12-01T11:53:12.179Z,57.10
2018-12-01T11:55:38.229Z,57.62
2018-12-01T11:58:04.354Z,56.81
2018-12-01T12:00:30.381Z,57.80
2018-12-01T12:02:57.104Z,55.99
2018-12-01T12:05:23.239Z,56.72
2018-12-01T12:07:49.839Z,55.07
2018-12-01T12:10:15.860Z,55.65
2018-12-01T12:12:42.223Z,55.17
2018-12-01T12:15:08.252Z,56.03
2018-12-01T12:17:34.226Z,55.63
2018-12-01T12:20:00.252Z,55.83
2018-12-01T12:22:26.483Z,56.71
2018-12-01T12:24:52.531Z,57.72
2018-12-01T12:27:18.591Z,57.72
2018-12-01T12:29:44.703Z,57.20
2018-12-01T12:32:10.720Z,57.35
2018-12-01T12:34:36.709Z,59.45
2018-12-01T12:37:02.827Z,59.88
2018-12-01T12:39:28.822Z,59.25
2018-12-01T12:41:54.810Z,57.58
2018-12-01T12:44:20.764Z,57.22
2018-12-01T12:46:46.755Z,56.17
2018-12-01T12:49:12.717Z,56.50
2018-12-01T12:51:38.781Z,54.99
2018-12-01T12:54:04.797Z,57.34
2018-12-01T12:56:30.781Z,56.19
2018-12-01T12:58:56.789Z,55.49
2018-12-01T13:01:22.836Z,56.34
2018-12-01T13:03:48.848Z,56.09
2018-12-01T13:06:14.921Z,58.24
2018-12-01T13:08:41.441Z,55.43
2018-12-01T13:11:07.550Z,55.00
2018-12-01T13:13:33.572Z,56.10
2018-12-01T13:15:59.581Z,57.38
2018-12-01T13:18:26.573Z,57.95
2018-12-01T13:20:54.256Z,57.80
2018-12-01T13:23:20.384Z,56.79
2018-12-01T13:25:46.398Z,56.18
2018-12-01T13:28:12.373Z,53.84
2018-12-01T13:30:40.477Z,56.48
2018-12-01T13:33:07.010Z,56.61
2018-12-01T13:35:32.996Z,56.80
2018-12-01T13:37:59.464Z,58.12
2018-12-01T13:40:25.493Z,57.87
2018-12-01T13:42:51.450Z,55.59
2018-12-01T13:45:18.293Z,55.62
2018-12-01T13:47:44.379Z,56.44
2018-12-01T13:50:10.413Z,55.52
2018-12-01T13:52:36.447Z,55.37
2018-12-01T13:55:02.508Z,55.85
2018-12-01T13:57:28.621Z,56.15
2018-12-01T13:59:54.614Z,56.17
2018-12-01T14:02:21.117Z,55.94
2018-12-01T14:04:47.536Z,56.41
2018-12-01T14:07:13.793Z,55.83
2018-12-01T14:09:39.865Z,56.80
2018-12-01T14:12:05.874Z,55.97
2018-12-01T14:14:31.852Z,56.58
2018-12-01T14:16:57.865Z,55.46
2018-12-01T14:19:23.863Z,54.93
2018-12-01T14:21:49.825Z,55.77
2018-12-01T14:24:15.874Z,55.45
2018-12-01T14:26:41.863Z,55.99
2018-12-01T14:29:07.834Z,55.88
2018-12-01T14:31:33.818Z,55.59
2018-12-01T14:33:59.806Z,54.51
2018-12-01T14:36:25.807Z,55.28
2018-12-01T14:38:51.809Z,55.89
2018-12-01T14:41:17.790Z,56.12
2018-12-01T14:43:43.756Z,55.31
2018-12-01T14:46:10.777Z,54.81
2018-12-01T14:48:36.783Z,55.70
2018-12-01T14:51:02.765Z,53.98
2018-12-01T14:53:28.745Z,53.68
2018-12-01T14:55:55.754Z,52.62
2018-12-01T14:58:21.708Z,53.16
2018-12-01T15:00:47.708Z,53.52
2018-12-01T15:03:13.738Z,53.43
2018-12-01T15:05:39.795Z,53.84
2018-12-01T15:08:05.838Z,53.34
2018-12-01T15:10:31.873Z,54.68
2018-12-01T15:12:57.905Z,54.70
2018-12-01T15:15:23.883Z,54.44
2018-12-01T15:17:50.022Z,53.60
2018-12-01T15:20:17.590Z,53.97
2018-12-01T15:22:43.627Z,55.19
2018-12-01T15:25:09.658Z,56.08
2018-12-01T15:27:35.680Z,55.69
2018-12-01T15:30:01.650Z,55.91
2018-12-01T15:32:27.695Z,55.09
2018-12-01T15:34:53.653Z,55.36
2018-12-01T15:37:19.707Z,55.05
2018-12-01T15:39:45.702Z,55.78
2018-12-01T15:42:13.058Z,55.82
2018-12-01T15:44:39.116Z,54.97
2018-12-01T15:47:05.159Z,53.68
2018-12-01T15:49:32.399Z,53.92
2018-12-01T15:51:58.408Z,54.74
2018-12-01T15:54:24.396Z,56.15
2018-12-01T15:56:50.425Z,55.39
2018-12-01T15:59:16.402Z,55.67
2018-12-01T16:01:43.293Z,55.76
2018-12-01T16:04:09.312Z,55.66
2018-12-01T16:06:35.375Z,55.37
2018-12-01T16:09:01.599Z,55.11
2018-12-01T16:11:27.726Z,54.13
2018-12-01T16:13:53.749Z,53.41
2018-12-01T16:16:20.692Z,54.75
2018-12-01T16:18:46.692Z,54.95
2018-12-01T16:21:12.728Z,54.65
2018-12-01T16:23:38.764Z,55.38
2018-12-01T16:26:04.755Z,55.53
2018-12-01T16:28:30.809Z,55.24
2018-12-01T16:30:56.956Z,55.68
2018-12-01T16:35:58.662Z,54.27
2018-12-01T16:38:27.022Z,53.64
2018-12-01T16:40:53.012Z,55.41
2018-12-01T16:43:19.057Z,55.43
2018-12-01T16:45:45.050Z,53.86
2018-12-01T16:48:11.059Z,54.98
2018-12-01T16:50:37.078Z,54.38
2018-12-01T16:53:03.148Z,54.99
2018-12-01T16:55:29.157Z,53.57
2018-12-01T16:57:56.196Z,53.57
2018-12-01T17:00:22.177Z,54.19
2018-12-01T17:02:48.392Z,54.77
2018-12-01T17:05:14.400Z,54.09
2018-12-01T17:10:16.633Z,53.46
2018-12-01T17:12:42.630Z,53.93
2018-12-01T17:15:14.555Z,53.80
2018-12-01T17:17:40.583Z,52.43
2018-12-01T17:20:06.583Z,53.26
2018-12-01T17:22:33.595Z,53.40
2018-12-01T17:24:59.635Z,54.87
2018-12-01T17:27:25.680Z,55.88
2018-12-01T17:29:51.673Z,56.14
2018-12-01T17:32:19.700Z,55.99
2018-12-01T17:34:49.413Z,55.71
2018-12-01T17:37:15.502Z,55.19
2018-12-01T17:39:41.532Z,55.03
2018-12-01T17:44:38.825Z,55.53
2018-12-01T17:47:09.944Z,56.14
2018-12-01T17:49:35.982Z,54.98
2018-12-01T17:52:02.000Z,55.03
2018-12-01T17:54:27.998Z,54.76
2018-12-01T17:56:54.021Z,56.04
2018-12-01T17:59:20.005Z,55.66
2018-12-01T18:01:46.102Z,54.25
2018-12-01T18:04:12.087Z,54.85
2018-12-01T18:06:38.195Z,53.42
2018-12-01T18:09:05.240Z,53.82
2018-12-01T18:11:32.080Z,53.74
2018-12-01T18:13:59.095Z,53.09
2018-12-01T18:16:29.417Z,52.67
2018-12-01T18:18:55.446Z,52.89
2018-12-01T18:21:22.501Z,54.12
2018-12-01T18:23:49.517Z,55.94
2018-12-01T18:26:15.866Z,55.84
2018-12-01T18:28:41.871Z,53.67
2018-12-01T18:31:08.166Z,53.67
2018-12-01T18:33:34.159Z,54.59
2018-12-01T18:36:00.183Z,54.66
2018-12-01T18:38:27.218Z,55.10
2018-12-01T18:40:53.545Z,56.31
2018-12-01T18:43:20.723Z,55.66
2018-12-01T18:45:47.370Z,54.58
2018-12-01T18:48:14.440Z,54.88
2018-12-01T18:50:40.482Z,54.88
2018-12-01T18:53:06.667Z,54.74
2018-12-01T18:55:32.746Z,53.71
2018-12-01T18:58:02.701Z,53.66
2018-12-01T19:00:28.739Z,53.71
2018-12-01T19:02:54.811Z,55.07
2018-12-01T19:05:21.489Z,55.83
2018-12-01T19:07:47.578Z,53.94
2018-12-01T19:10:13.580Z,52.94
2018-12-01T19:12:39.631Z,54.59
2018-12-01T19:15:05.651Z,54.97
2018-12-01T19:17:31.697Z,56.09
2018-12-01T19:22:32.088Z,54.33
2018-12-01T19:24:58.123Z,54.13
2018-12-01T19:27:25.086Z,53.07
2018-12-01T19:29:51.160Z,53.13
2018-12-01T19:32:18.156Z,53.22
2018-12-01T19:34:44.746Z,53.41
2018-12-01T19:37:10.815Z,53.71
2018-12-01T19:39:36.824Z,53.71
2018-12-01T19:42:02.877Z,54.42
2018-12-01T19:44:28.855Z,54.69
2018-12-01T19:46:54.912Z,55.95
2018-12-01T19:49:20.902Z,54.41
2018-12-01T19:51:49.382Z,53.53
2018-12-01T19:54:15.410Z,57.63
2018-12-01T19:56:42.521Z,56.90
2018-12-01T19:59:09.956Z,56.05
2018-12-01T20:01:35.975Z,54.59
2018-12-01T20:04:01.965Z,54.79
2018-12-01T20:06:28.057Z,53.16
2018-12-01T20:08:54.089Z,55.14
2018-12-01T20:11:20.091Z,53.14
2018-12-01T20:13:46.118Z,53.91
2018-12-01T20:16:12.164Z,53.38
2018-12-01T20:18:38.240Z,53.18
2018-12-01T20:21:04.246Z,52.86
2018-12-01T20:23:30.870Z,53.45
2018-12-01T20:25:56.905Z,53.19
2018-12-01T20:28:22.920Z,53.70
2018-12-01T20:30:48.923Z,53.97
2018-12-01T20:33:15.202Z,53.97
2018-12-01T20:35:41.212Z,54.81
2018-12-01T20:38:07.263Z,55.22
2018-12-01T20:40:33.305Z,55.81
2018-12-01T20:42:59.327Z,54.66
2018-12-01T20:45:25.318Z,54.02
2018-12-01T20:47:51.312Z,54.02
2018-12-01T20:50:17.297Z,54.45
2018-12-01T20:52:43.260Z,53.93
2018-12-01T20:55:09.272Z,54.20
2018-12-01T20:57:37.394Z,55.76
2018-12-01T21:00:03.469Z,55.84
2018-12-01T21:02:33.946Z,55.18
2018-12-01T21:04:59.949Z,55.34
2018-12-01T21:07:25.963Z,53.65
2018-12-01T21:09:52.014Z,53.82
2018-12-01T21:12:18.099Z,53.64
2018-12-01T21:14:44.089Z,54.22
2018-12-01T21:17:10.062Z,56.17
2018-12-01T21:19:36.131Z,55.33
2018-12-01T21:22:03.171Z,54.72
2018-12-01T21:24:29.163Z,55.08
2018-12-01T21:26:55.152Z,55.63
2018-12-01T21:29:21.169Z,54.38
2018-12-01T21:31:47.213Z,54.53
2018-12-01T21:34:13.259Z,53.71
2018-12-01T21:36:39.277Z,53.25
2018-12-01T21:39:05.306Z,53.73
2018-12-01T21:41:31.288Z,53.37
2018-12-01T21:43:57.295Z,52.50
2018-12-01T21:46:23.282Z,53.19
2018-12-01T21:58:55.312Z,55.45
2018-12-01T22:01:21.362Z,55.90
2018-12-01T22:03:47.363Z,55.73
2018-12-01T22:06:13.401Z,55.12
2018-12-01T22:08:39.401Z,55.06
2018-12-01T22:11:05.433Z,54.49
2018-12-01T22:13:31.494Z,53.81
2018-12-01T22:15:57.537Z,52.86
2018-12-01T22:18:23.596Z,53.48
2018-12-01T22:20:49.795Z,54.41
2018-12-01T22:23:16.298Z,54.53
2018-12-01T22:25:42.388Z,54.76
2018-12-01T22:28:08.452Z,55.19
2018-12-01T22:30:34.438Z,55.51
2018-12-01T22:33:00.462Z,54.56
2018-12-01T22:35:27.386Z,53.41
2018-12-01T22:37:53.481Z,52.43
2018-12-01T22:40:19.488Z,53.09
2018-12-01T22:42:45.504Z,54.29
2018-12-01T22:47:44.887Z,52.57
2018-12-01T22:50:11.986Z,54.57
2018-12-01T22:52:41.621Z,54.48
2018-12-01T22:55:07.638Z,55.81
2018-12-01T22:57:33.685Z,55.11
2018-12-01T22:59:59.717Z,53.91
2018-12-01T23:02:25.717Z,56.79
2018-12-01T23:04:51.799Z,57.56
2018-12-01T23:07:18.301Z,57.89
2018-12-01T23:09:44.309Z,56.73
2018-12-01T23:12:10.984Z,59.45
2018-12-01T23:14:36.995Z,59.24
2018-12-01T23:17:03.022Z,59.76
2018-12-01T23:19:29.047Z,59.24
2018-12-01T23:21:55.032Z,59.81
2018-12-01T23:24:21.247Z,60.48
2018-12-01T23:26:47.262Z,62.19
2018-12-01T23:29:13.287Z,59.39
2018-12-01T23:31:39.335Z,58.86
2018-12-01T23:34:05.324Z,58.08
2018-12-01T23:36:31.358Z,56.17
2018-12-01T23:38:57.378Z,55.53
2018-12-01T23:41:23.365Z,54.88
2018-12-01T23:43:49.368Z,53.98
2018-12-01T23:46:15.928Z,54.48
2018-12-01T23:48:42.001Z,54.66
2018-12-01T23:51:08.040Z,55.15
2018-12-01T23:53:34.025Z,55.64
2018-12-01T23:56:00.024Z,55.55
2018-12-01T23:58:26.044Z,54.29
